Ary, KY

4:13 PM EST on January 28, 2015 (GMT -0500)
KKYJACKS3 | Change Station
CLOSE
Current Station
Personal Weather Station
Location: Talbert, KY
Elevation: 994 ft
Nearby Weather Stations

Elev 994 ft 37.41 °N, 83.42 °W | Updated 3 minutes ago

Clear
Clear
36.5 °F
Feels Like 36 °F
N
0.0
Wind Variable Wind from North
Gusts 0.0 mph

Today
High -- | Low -- °F
--% Chance of Precip.
Yesterday
High -- | Low -- °F
Precip. -- in
7:39 AM 5:52 PM
Waxing Gibbous, 68% visible
Pressure 30.31 in
Visibility 10.0 miles
Clouds Clear
Windchill 36 °F
Dew Point 22 °F
Humidity 55%
Rainfall 0.00 in
Snow Depth Not available.
UV 1 out of 12
Pollen .10 out of 12
Air Quality Not available.
Flu Activity Not available.
METAR KJKL 282053Z AUTO 10004KT 10SM CLR 02/M08 A3027 RMK AO2 SLP264 T00221078 56017

More Conditions Fewer Conditions

Pressure 30.31 in
Visibility 10.0 miles
Clouds Clear
Windchill 36 °F
Dew Point 22 °F
Humidity 55%
Rainfall 0.00 in
Snow Depth Not available.
UV 1 out of 12
Pollen .10 out of 12
Air Quality Not available.
Flu Activity Not available.
METAR KJKL 282053Z AUTO 10004KT 10SM CLR 02/M08 A3027 RMK AO2 SLP264 T00221078 56017

More Conditions Fewer Conditions

10-Day Weather Forecast

Almanac

Astronomy

Jan. 28, 2015 Rise Set
Actual Time
Civil Twilight
Nautical Twilight
Astronomical Twilight
Moon
Length of Visible Light
Length of Day
Tomorrow will be .
, % of the Moon is Illuminated

Today's Extremes

State Highs State Lows

Community

WunderPhotos

Upload Photos

1,791,263 photos uploaded!

WunderBlogs® & News

Nearby

Air Quality

  Air Quality AQ Index Pollutant
Not available.

Snow Depth

Station Depth Elevation

Earthquake Activity

City Distance Mag. Time & Date
Minimum magnitude displayed is 2.5.

Coastal Water Temperatures

Place Temperature

Nearby Weather Stations